South Reno (Wolf Run), Nevada Weather observations

Data are for observation ending at time listed.
 Day   Time    Ave.   Ave.  Ave.  Vector   Max.   Stn.    Total    Solar   Ave.  
  of    of     Air    Rel.  Wind   Wind    Wind   Baro.  Precip.   Rad.    Soil  
Year   Day     Temp.  Hum.  Speed  Dir.    Gust   Pres.                    Temp. 
2014   (PST)    F      %     mph   deg.    mph     mb.     in.     W/m2     F   
------------------------------------------------------------------------------
 295    9:30   51.3    39    3.9     1      7.6  99999.0    0.00     699    51.1
 295    9:40   52.9    37    2.8   358      6.4  99999.0    0.00     670    51.1
 295    9:50   53.7    36    3.3    22      6.2  99999.0    0.00     611    51.1
 295   10:00   54.4    35    3.0    36      7.1  99999.0    0.00     675    51.2
 295   10:10   54.6    34    4.1    10      7.4  99999.0    0.00     615    51.2
 295   10:20   54.9    34    2.8     9      5.1  99999.0    0.00     578    51.3
 295   10:30   56.4    33    2.1   336      4.8  99999.0    0.00     479    51.3
 295   10:40   56.5    33    2.2   356      5.7  99999.0    0.00     483    51.4
 295   10:50   56.4    33    2.6   330      5.8  99999.0    0.00     455    51.5
 295   11:00   57.4    32    3.2    29      6.2  99999.0    0.00     534    51.6
 295   11:10   57.4    31    3.2   359      6.3  99999.0    0.00     416    51.7
 295   11:20   58.6    31    3.1    13      6.4  99999.0    0.00     648    51.8
 295   11:30   59.4    29    3.7   354      6.1  99999.0    0.00     720    51.9
 295   11:40   60.0    28    2.5    56      5.3  99999.0    0.00     593    52.0
 295   11:50   60.9    28    2.1    43      5.0  99999.0    0.00     442    52.1
 295   12:00   61.0    28    2.8    29      6.3  99999.0    0.00     455    52.2
 295   12:10   61.1    28    3.4    30      6.7  99999.0    0.00     491    52.3
 295   12:20   61.5    28    2.8    31      7.2  99999.0    0.00     441    52.4
 295   12:30   61.4    28    3.2    14      5.6  99999.0    0.00     353    52.5
 295   12:40   61.0    28    2.6     2      4.7  99999.0    0.00     337    52.6
 295   12:50   61.4    28    2.0   357      4.6  99999.0    0.00     344    52.8
 295   13:00   62.3    27    2.3    25      6.0  99999.0    0.00     468    52.9
 295   13:10   62.8    26    2.3    26      4.7  99999.0    0.00     499    53.0
 295   13:20   64.0    25    1.9    17      7.0  99999.0    0.00     606    53.1
 295   13:30   64.4    24    2.9     5      6.0  99999.0    0.00     677    53.2
 295   13:40   65.2    24    2.5    18      5.8  99999.0    0.00     596    53.3
 295   13:50   65.6    24    3.0    28      6.0  99999.0    0.00     558    53.4
 295   14:00   65.7    23    2.7     4      5.4  99999.0    0.00     476    53.5
 295   14:10   66.1    24    3.0     7      5.9  99999.0    0.00     421    53.7
 295   14:20   66.1    23    3.2    14      6.2  99999.0    0.00     379    53.8
 295   14:30   66.1    24    3.6     6      5.8  99999.0    0.00     410    53.9
 295   14:40   66.8    23    4.0   354      7.2  99999.0    0.00     420    54.0
 295   14:50   66.7    23    5.3   355      8.6  99999.0    0.00     425    54.1
 295   15:00   66.2    24    5.5   347      8.0  99999.0    0.00     299    54.2
 295   15:10   66.2    24    6.4   342     10.4  99999.0    0.00     332    54.3
 295   15:20   66.1    25    7.1   334     11.7  99999.0    0.00     330    54.4
 295   15:30   66.2    24    6.0   339     10.9  99999.0    0.00     319    54.5
 295   15:40   67.3    22    3.9   347     12.2  99999.0    0.00     344    54.5
 295   15:50   67.9    23    4.9   346      8.6  99999.0    0.00     295    54.6
 295   16:00   66.8    24    4.2   325      8.0  99999.0    0.00     195    54.7
 295   16:10   66.4    24    6.1   323      9.9  99999.0    0.00     227    54.7
 295   16:20   66.6    24    3.6   310      8.1  99999.0    0.00     178    54.8
 295   16:30   66.5    25    2.6   294      6.3  99999.0    0.00     166    54.9
 295   16:40   65.2    25    4.0   209      9.6  99999.0    0.00      74    54.9
 295   16:50   64.6    24    6.9   211     17.8  99999.0    0.00      45    54.9
 295   17:00   64.8    24   10.8   196     18.5  99999.0    0.00      30    55.0
 295   17:10   64.5    24   12.0   194     17.7  99999.0    0.00       8    55.0
 295   17:20   64.0    25   12.8   190     19.7  99999.0    0.00       2    55.0
 295   17:30   63.9    25   12.9   198     19.3  99999.0    0.00       0    55.1
 295   17:40   63.8    25   12.3   196     21.2  99999.0    0.00       0    55.1
 295   17:50   63.8    24   14.4   200     21.2  99999.0    0.00       0    55.1
 295   18:00   63.6    24   14.8   200     23.0  99999.0    0.00       0    55.1
 295   18:10   63.1    25   14.3   202     21.5  99999.0    0.00       0    55.1
 295   18:20   62.9    25   15.0   202     23.1  99999.0    0.00       0    55.1
 295   18:30   62.8    25   14.6   205     19.9  99999.0    0.00       0    55.1
 295   18:40   62.6    25   16.0   204     25.3  99999.0    0.00       0    55.0
 295   18:50   62.3    26   15.5   207     22.6  99999.0    0.00       0    55.0
 295   19:00   62.2    26   16.9   212     23.4  99999.0    0.00       0    55.0
 295   19:10   61.8    26   15.9   214     24.9  99999.0    0.00       0    55.0
 295   19:20   61.5    27   14.2   211     25.6  99999.0    0.00       0    55.0
 295   19:30   61.7    26   15.0   203     23.4  99999.0    0.00       0    54.9
 295   19:40   61.6    26   14.9   198     26.4  99999.0    0.00       0    54.9
 295   19:50   61.2    27   14.1   196     21.4  99999.0    0.00       0    54.8
 295   20:00   61.3    26   14.5   189     23.8  99999.0    0.00       0    54.8
 295   20:10   60.8    27   13.7   190     20.7  99999.0    0.00       0    54.8
 295   20:20   60.5    26   12.4   197     20.5  99999.0    0.00       0    54.8
 295   20:30   60.6    25   12.5   197     20.3  99999.0    0.00       0    54.7
 295   20:40   60.8    24   12.6   186     23.5  99999.0    0.00       0    54.7
 295   20:50   60.8    22   13.8   188     21.4  99999.0    0.00       0    54.6
 295   21:00   60.7    20   13.0   190     22.3  99999.0    0.00       0    54.6
 295   21:10   61.2    19   13.6   200     23.4  99999.0    0.00       0    54.6
 295   21:20   61.6    18   12.8   200     25.5  99999.0    0.00       0    54.5
 295   21:30   60.7    20   12.3   211     21.7  99999.0    0.00       0    54.5
 295   21:40   60.4    21   12.1   202     19.8  99999.0    0.00       0    54.5
 295   21:50   61.2    19   13.2   188     22.1  99999.0    0.00       0    54.4
 295   22:00   61.3    18   13.3   185     24.4  99999.0    0.00       0    54.4
 295   22:10   61.4    18   10.6   200     18.4  99999.0    0.00       0    54.4
 295   22:20   60.4    21    4.1   342     10.7  99999.0    0.00       0    54.3
 295   22:30   55.8    29    1.8    62      5.6  99999.0    0.00       0    54.3
 295   22:40   54.2    31    2.8   158      6.0  99999.0    0.00       0    54.2
 295   22:50   52.8    32    2.1   205      6.5  99999.0    0.00       0    54.2
 295   23:00   53.0    32    1.7   111      5.4  99999.0    0.00       0    54.2
 295   23:10   52.3    33    0.8     2      3.4  99999.0    0.00       0    54.1
 295   23:20   53.1    30    4.6   170     19.0  99999.0    0.00       0    54.1
 295   23:30   58.9    23    5.6   196     13.0  99999.0    0.00       0    54.0
 295   23:40   58.0    25    7.7   201     18.2  99999.0    0.00       0    54.0
 295   23:50   59.0    24    8.7   189     15.8  99999.0    0.00       0    54.0
 296    0:00   58.7    24    6.4   160     15.7  99999.0    0.00       0    53.9
 296    0:10   59.7    22    9.1   193     16.6  99999.0    0.00       0    53.9
 296    0:20   59.9    22    8.9   183     18.8  99999.0    0.00       0    53.9
 296    0:30   58.9    24    5.6   185     13.7  99999.0    0.00       0    53.8
 296    0:40   53.8    31    5.7    94     11.2  99999.0    0.00       0    53.8
 296    0:50   52.5    33    4.3    93      9.2  99999.0    0.00       0    53.7
 296    1:00   52.0    33    1.8    88      4.0  99999.0    0.00       0    53.7
 296    1:10   53.9    31    4.3   150     11.7  99999.0    0.00       0    53.7
 296    1:20   55.7    30    6.8   168     11.7  99999.0    0.00       0    53.6
 296    1:30   58.2    27    9.5   178     18.2  99999.0    0.00       0    53.6
 296    1:40   57.6    28    6.2   188     10.2  99999.0    0.00       0    53.6
 296    1:50   57.6    27    7.5   186     11.9  99999.0    0.00       0    53.5
 296    2:00   57.5    27    7.5   189     12.6  99999.0    0.00       0    53.5
 296    2:10   57.4    27    6.6   186     12.2  99999.0    0.00       0    53.5
 296    2:20   58.6    26    7.7   198     13.7  99999.0    0.00       0    53.4
 296    2:30   58.2    26    7.2   198     10.7  99999.0    0.00       0    53.4
 296    2:40   58.2    26    7.8   194     14.4  99999.0    0.00       0    53.4
 296    2:50   58.1    26    6.3   190     11.6  99999.0    0.00       0    53.3
 296    3:00   58.1    26    7.4   193     13.2  99999.0    0.00       0    53.3
 296    3:10   58.0    26    6.8   178     12.4  99999.0    0.00       0    53.3
 296    3:20   58.2    26    6.0   191      9.4  99999.0    0.00       0    53.3
 296    3:30   56.8    28    2.1   197      6.1  99999.0    0.00       0    53.2
 296    3:40   55.4    30    1.4   193      5.4  99999.0    0.00       0    53.2
 296    3:50   52.0    35    4.1   359     11.3  99999.0    0.00       0    53.2
 296    4:00   50.4    37    1.9   341      6.4  99999.0    0.00       0    53.2
 296    4:10   49.6    37    1.1   255      4.3  99999.0    0.00       0    53.1
 296    4:20   50.9    34    2.4    42      5.6  99999.0    0.00       0    53.1
 296    4:30   49.9    37    2.0   285      4.3  99999.0    0.00       0    53.1
 296    4:40   48.6    39    2.1   292      7.2  99999.0    0.00       0    53.1
 296    4:50   49.8    36    2.8   257      5.7  99999.0    0.00       0    53.0
 296    5:00   49.5    37    1.8   266      5.0  99999.0    0.00       0    53.0
 296    5:10   49.1    39    1.4     4      4.8  99999.0    0.00       0    53.0
 296    5:20   48.7    40    2.5   341      5.0  99999.0    0.00       0    52.9
 296    5:30   47.2    42    2.2   262      5.8  99999.0    0.00       0    52.9
 296    5:40   48.6    40    3.2   248      5.6  99999.0    0.00       0    52.9
 296    5:50   48.0    41    3.8   251      7.0  99999.0    0.00       0    52.8
 296    6:00   47.5    43    1.2   246      3.8  99999.0    0.00       0    52.8
 296    6:10   48.4    40    2.2   259      5.8  99999.0    0.00       1    52.8
 296    6:20   46.7    43    2.6   233      5.1  99999.0    0.00       2    52.7
 296    6:30   45.1    46    3.5   228      5.3  99999.0    0.00       8    52.7
 296    6:40   45.9    46    1.5   237      4.6  99999.0    0.00      16    52.7
 296    6:50   46.7    44    2.6   227      5.7  99999.0    0.00      27    52.6
 296    7:00   47.9    42    1.9   239      5.0  99999.0    0.00      48    52.6
 296    7:10   48.9    42    3.3   229      5.0  99999.0    0.00      66    52.6
 296    7:20   50.6    39    1.9   199      4.0  99999.0    0.00      77    52.5
 296    7:30   51.2    39    1.1   184      2.9  99999.0    0.00      86    52.5
 296    7:40   51.3    40    2.1   206      4.1  99999.0    0.00      96    52.5
 296    7:50   52.0    39    2.7   230      5.0  99999.0    0.00     122    52.4
 296    8:00   53.2    37    2.1   210      4.1  99999.0    0.00     169    52.4
 296    8:10   54.8    35    1.7   194      3.9  99999.0    0.00     181    52.4
 296    8:20   56.7    33    1.1   130      3.0  99999.0    0.00     269    52.4
 296    8:30   58.2    33    0.9   336      3.4  99999.0    0.00     344    52.4
 296    8:40   58.8    32    1.7   358      4.2  99999.0    0.00     349    52.4
 296    8:50   59.4    30    1.9    12      4.1  99999.0    0.00     417    52.4
 296    9:00   60.4    30    2.6   346      6.4  99999.0    0.00     444    52.4
 296    9:10   59.9    30    4.2     2      7.0  99999.0    0.00     503    52.4
 296    9:20   59.8    30    4.9    24      7.4  99999.0    0.00     495    52.4

Return to South Reno, Nevada graphs page.


Western Regional Climate Center,wrcc@dri.edu